Terminal Aerodrome Forecast
Issued by NWS

Home | Current Version | Previous Version | Text Only | Print | Product List | Glossary On
Versions: 1 2 3 4 5 6 7 8 9 10 11 12 13 14 15 16 17 18 19
000
FTUS44 KHGX 250520
TAFLBX
TAF
KLBX 250520Z 2506/2606 21006KT P6SM SCT250 WS020/22030KT
     FM250800 VRB02KT 6SM BR FEW020 SCT250
      TEMPO 2510/2514 5SM BR
     FM251400 22007KT P6SM SCT050 SCT250
     FM260300 34008KT P6SM BKN050=

USA.gov is the U.S. government's official web portal to all federal, state and local government web resources and services.